createdAt,value
2018-03-04T00:04:26.000Z,991.737
2018-03-04T00:14:26.000Z,991.802
2018-03-04T00:24:26.000Z,991.752
2018-03-04T00:34:26.000Z,991.693
2018-03-04T00:44:26.000Z,991.701
2018-03-04T00:54:26.000Z,991.63
2018-03-04T01:04:26.000Z,991.672
2018-03-04T01:14:26.000Z,991.73
2018-03-04T01:24:26.000Z,991.651
2018-03-04T01:34:26.000Z,991.529
2018-03-04T01:44:26.000Z,991.467
2018-03-04T01:54:26.000Z,991.374
2018-03-04T02:04:28.000Z,991.412
2018-03-04T02:14:26.000Z,991.31
2018-03-04T02:24:26.000Z,991.238
2018-03-04T02:34:26.000Z,991.202
2018-03-04T02:44:26.000Z,991.143
2018-03-04T03:04:26.000Z,991.095
2018-03-04T03:14:26.000Z,990.979
2018-03-04T03:24:26.000Z,990.902
2018-03-04T03:34:27.000Z,990.827
2018-03-04T03:44:27.000Z,990.702
2018-03-04T03:54:27.000Z,990.665
2018-03-04T04:04:27.000Z,990.684
2018-03-04T04:14:27.000Z,990.526
2018-03-04T04:24:27.000Z,990.358
2018-03-04T04:34:27.000Z,990.339
2018-03-04T04:44:27.000Z,990.176
2018-03-04T04:54:27.000Z,990.094
2018-03-04T05:04:27.000Z,990.123
2018-03-04T05:14:27.000Z,989.998
2018-03-04T05:24:27.000Z,990.05
2018-03-04T05:34:27.000Z,990.061
2018-03-04T05:44:27.000Z,989.989
2018-03-04T05:54:27.000Z,990.027
2018-03-04T06:04:27.000Z,990.111
2018-03-04T06:14:27.000Z,990.137
2018-03-04T06:34:27.000Z,990.2
2018-03-04T06:44:28.000Z,990.192
2018-03-04T06:54:29.000Z,990.342
2018-03-04T07:04:27.000Z,990.285
2018-03-04T07:14:27.000Z,990.29
2018-03-04T07:24:27.000Z,990.311
2018-03-04T07:34:27.000Z,990.406
2018-03-04T07:44:27.000Z,990.411
2018-03-04T07:54:27.000Z,990.406
2018-03-04T08:04:27.000Z,990.375
2018-03-04T08:14:27.000Z,990.36
2018-03-04T08:24:27.000Z,990.358
2018-03-04T08:34:27.000Z,990.291
2018-03-04T08:44:27.000Z,990.387
2018-03-04T08:54:27.000Z,990.419
2018-03-04T09:04:27.000Z,990.482
2018-03-04T09:14:27.000Z,990.578
2018-03-04T09:24:27.000Z,990.466
2018-03-04T09:34:27.000Z,990.448
2018-03-04T09:44:27.000Z,990.344
2018-03-04T09:54:27.000Z,990.342
2018-03-04T10:04:27.000Z,990.273
2018-03-04T10:14:27.000Z,990.133
2018-03-04T10:24:27.000Z,990.064
2018-03-04T10:34:27.000Z,989.993
2018-03-04T10:44:27.000Z,989.851
2018-03-04T10:54:27.000Z,989.925
2018-03-04T11:04:27.000Z,989.867
2018-03-04T11:14:27.000Z,989.711
2018-03-04T11:24:27.000Z,989.629
2018-03-04T11:34:27.000Z,989.458
2018-03-04T11:44:28.000Z,989.344
2018-03-04T11:54:28.000Z,989.299
2018-03-04T12:04:28.000Z,989.356
2018-03-04T12:14:28.000Z,989.311
2018-03-04T12:24:28.000Z,989.109
2018-03-04T12:34:28.000Z,988.915
2018-03-04T12:44:28.000Z,988.911
2018-03-04T12:54:28.000Z,988.795
2018-03-04T13:04:28.000Z,988.668
2018-03-04T13:14:29.000Z,988.511
2018-03-04T13:24:28.000Z,988.318
2018-03-04T13:34:28.000Z,988.187
2018-03-04T13:44:28.000Z,988.128
2018-03-04T13:54:28.000Z,987.998
2018-03-04T14:04:28.000Z,987.958
2018-03-04T14:14:28.000Z,987.862
2018-03-04T14:24:28.000Z,987.825
2018-03-04T14:34:28.000Z,987.697
2018-03-04T14:44:28.000Z,987.727
2018-03-04T14:54:28.000Z,987.69
2018-03-04T15:04:28.000Z,987.615
2018-03-04T15:14:28.000Z,987.569
2018-03-04T15:24:28.000Z,987.436
2018-03-04T15:34:28.000Z,987.495
2018-03-04T15:44:28.000Z,987.314
2018-03-04T15:54:28.000Z,987.23
2018-03-04T16:04:28.000Z,987.042
2018-03-04T16:14:28.000Z,986.951
2018-03-04T16:24:28.000Z,986.875
2018-03-04T16:34:28.000Z,986.766
2018-03-04T16:44:28.000Z,986.812
2018-03-04T16:54:28.000Z,986.645
2018-03-04T17:04:28.000Z,986.458
2018-03-04T17:14:28.000Z,986.388
2018-03-04T17:24:28.000Z,986.486
2018-03-04T17:34:28.000Z,986.583
2018-03-04T17:44:28.000Z,986.777
2018-03-04T17:54:28.000Z,986.593
2018-03-04T18:04:28.000Z,986.612
2018-03-04T18:14:29.000Z,986.548
2018-03-04T18:24:28.000Z,986.395
2018-03-04T18:34:28.000Z,986.37
2018-03-04T18:44:28.000Z,986.288
2018-03-04T18:54:28.000Z,986.299
2018-03-04T19:04:28.000Z,986.436
2018-03-04T19:14:28.000Z,986.625
2018-03-04T19:24:28.000Z,986.555
2018-03-04T19:34:28.000Z,986.586
2018-03-04T19:44:29.000Z,986.705
2018-03-04T19:54:29.000Z,986.546
2018-03-04T20:04:29.000Z,986.249
2018-03-04T20:14:29.000Z,985.917
2018-03-04T20:24:31.000Z,985.939
2018-03-04T20:34:29.000Z,985.905
2018-03-04T20:44:29.000Z,985.787
2018-03-04T20:54:29.000Z,985.696
2018-03-04T21:04:29.000Z,985.68
2018-03-04T21:14:29.000Z,985.168
2018-03-04T21:24:29.000Z,985.263
2018-03-04T21:34:29.000Z,984.687
2018-03-04T21:44:29.000Z,984.801
2018-03-04T21:54:29.000Z,984.832
2018-03-04T22:04:29.000Z,984.872
2018-03-04T22:14:29.000Z,985.007
2018-03-04T22:24:29.000Z,985.019
2018-03-04T22:34:31.000Z,984.951
2018-03-04T22:44:29.000Z,985.042
2018-03-04T22:54:30.000Z,985.108
2018-03-04T23:04:29.000Z,985.202
2018-03-04T23:14:29.000Z,985.297
2018-03-04T23:24:29.000Z,985.335
2018-03-04T23:34:29.000Z,985.498
2018-03-04T23:44:29.000Z,985.668
2018-03-04T23:54:29.000Z,985.833
